createdAt,value
2022-09-21T12:07:17.398Z,1017.39
2022-09-21T12:08:17.355Z,1017.38
2022-09-21T12:09:17.348Z,1017.40
2022-09-21T12:10:17.330Z,1017.42
2022-09-21T12:11:17.317Z,1017.41
2022-09-21T12:12:17.294Z,1017.35
2022-09-21T12:13:17.278Z,1017.36
2022-09-21T12:14:17.284Z,1017.31
2022-09-21T12:15:17.307Z,1017.36
2022-09-21T12:16:17.274Z,1017.30
2022-09-21T12:17:17.201Z,1017.27
2022-09-21T12:18:17.198Z,1017.30
2022-09-21T12:19:17.190Z,1017.30
2022-09-21T12:20:17.166Z,1017.26
2022-09-21T12:21:17.147Z,1017.28
2022-09-21T12:22:17.131Z,1017.25
2022-09-21T12:23:17.107Z,1017.25
2022-09-21T12:24:17.127Z,1017.26
2022-09-21T12:25:17.074Z,1017.25
2022-09-21T12:26:17.059Z,1017.28
2022-09-21T12:27:17.053Z,1017.29
2022-09-21T12:28:17.040Z,1017.30
2022-09-21T12:29:17.023Z,1017.25
2022-09-21T12:30:17.022Z,1017.27
2022-09-21T12:31:17.006Z,1017.25
2022-09-21T12:32:16.972Z,1017.23
2022-09-21T12:33:16.958Z,1017.17
2022-09-21T12:34:16.941Z,1017.16
2022-09-21T12:35:16.950Z,1017.19
2022-09-21T12:36:16.923Z,1017.19
2022-09-21T12:37:16.908Z,1017.17
2022-09-21T12:38:16.898Z,1017.19
2022-09-21T12:39:16.881Z,1017.21
2022-09-21T12:40:16.938Z,1017.16
2022-09-21T12:41:16.855Z,1017.19
2022-09-21T12:42:16.830Z,1017.17
2022-09-21T12:43:16.818Z,1017.14
2022-09-21T12:44:16.818Z,1017.09
2022-09-21T12:45:16.789Z,1017.13
2022-09-21T12:46:16.855Z,1017.12
2022-09-21T12:47:16.773Z,1017.09
2022-09-21T12:48:16.751Z,1017.12
2022-09-21T12:49:16.741Z,1017.08
2022-09-21T12:50:16.737Z,1017.08
2022-09-21T12:51:16.728Z,1017.11
2022-09-21T12:52:16.708Z,1017.08
2022-09-21T12:53:17.564Z,1017.07
2022-09-21T12:54:16.674Z,1017.05
2022-09-21T12:55:17.539Z,1017.09
2022-09-21T12:56:16.671Z,1017.07
2022-09-21T12:57:38.175Z,1017.04
2022-09-21T12:58:16.817Z,1017.05
2022-09-21T12:59:16.617Z,1017.02
2022-09-21T13:00:16.607Z,1017.04
2022-09-21T13:01:16.734Z,1017.03
2022-09-21T13:02:16.754Z,1017.03
2022-09-21T13:03:16.558Z,1017.01
2022-09-21T13:04:16.552Z,1016.97
2022-09-21T13:05:16.534Z,1016.99
2022-09-21T13:06:16.567Z,1016.98
2022-09-21T13:07:16.528Z,1016.98
2022-09-21T13:08:16.497Z,1016.97
2022-09-21T13:09:16.495Z,1016.97
2022-09-21T13:10:16.475Z,1016.96
2022-09-21T13:11:16.459Z,1016.94
2022-09-21T13:12:16.484Z,1016.95
2022-09-21T13:13:16.436Z,1016.92
2022-09-21T13:14:16.433Z,1016.90
2022-09-21T13:15:16.411Z,1016.91
2022-09-21T13:16:16.433Z,1016.91
2022-09-21T13:17:16.399Z,1016.90
2022-09-21T13:18:16.389Z,1016.90
2022-09-21T13:19:16.374Z,1016.90
2022-09-21T13:20:16.365Z,1016.90
2022-09-21T13:21:16.353Z,1016.87
2022-09-21T13:22:16.342Z,1016.90
2022-09-21T13:23:16.344Z,1016.89
2022-09-21T13:24:16.314Z,1016.86
2022-09-21T13:25:16.303Z,1016.83
2022-09-21T13:26:16.281Z,1016.84
2022-09-21T13:27:16.310Z,1016.84
2022-09-21T13:28:16.283Z,1016.79
2022-09-21T13:29:16.258Z,1016.79
2022-09-21T13:30:16.249Z,1016.79
2022-09-21T13:31:37.000Z,1016.80
2022-09-21T13:32:16.229Z,1016.77
2022-09-21T13:33:16.226Z,1016.71
2022-09-21T13:34:16.206Z,1016.76
2022-09-21T13:35:16.182Z,1016.72
2022-09-21T13:36:16.171Z,1016.74
2022-09-21T13:37:16.157Z,1016.69
2022-09-21T13:38:16.216Z,1016.68
2022-09-21T13:39:16.146Z,1016.70
2022-09-21T13:40:16.246Z,1016.74
2022-09-21T13:41:16.117Z,1016.72
2022-09-21T13:42:16.117Z,1016.72
2022-09-21T13:43:16.094Z,1016.72
2022-09-21T13:44:16.125Z,1016.76
2022-09-21T13:45:16.082Z,1016.73
2022-09-21T13:46:16.152Z,1016.66
2022-09-21T13:47:16.052Z,1016.67
2022-09-21T13:48:16.056Z,1016.66
2022-09-21T13:49:16.057Z,1016.65
2022-09-21T13:50:16.035Z,1016.66
2022-09-21T13:51:16.022Z,1016.62
2022-09-21T13:52:16.007Z,1016.60
2022-09-21T13:53:16.014Z,1016.59
2022-09-21T13:54:16.016Z,1016.58
2022-09-21T13:55:15.979Z,1016.56
2022-09-21T13:56:15.975Z,1016.53
2022-09-21T13:57:15.958Z,1016.55
2022-09-21T13:58:15.954Z,1016.56
2022-09-21T13:59:15.947Z,1016.56
2022-09-21T14:00:15.944Z,1016.54
2022-09-21T14:01:42.539Z,1016.54
2022-09-21T14:02:16.025Z,1016.51
2022-09-21T14:03:15.909Z,1016.50
2022-09-21T14:04:15.901Z,1016.46
2022-09-21T14:05:15.882Z,1016.47
2022-09-21T14:06:15.870Z,1016.47
2022-09-21T14:07:15.862Z,1016.49
2022-09-21T14:08:15.854Z,1016.49
2022-09-21T14:09:15.883Z,1016.45
2022-09-21T14:10:15.849Z,1016.47
2022-09-21T14:11:15.823Z,1016.46
2022-09-21T14:12:15.840Z,1016.45
2022-09-21T14:13:15.814Z,1016.48
2022-09-21T14:14:15.806Z,1016.54
2022-09-21T14:15:15.808Z,1016.62
2022-09-21T14:16:15.829Z,1016.69
2022-09-21T14:17:15.779Z,1016.74
2022-09-21T14:18:15.764Z,1016.69
2022-09-21T14:19:15.752Z,1016.69
2022-09-21T14:20:15.770Z,1016.71
2022-09-21T14:21:15.744Z,1016.71
2022-09-21T14:22:15.728Z,1016.69
2022-09-21T14:23:15.726Z,1016.65
2022-09-21T14:24:15.722Z,1016.68
2022-09-21T14:25:15.715Z,1016.63
2022-09-21T14:26:15.707Z,1016.52
2022-09-21T14:27:15.684Z,1016.45
2022-09-21T14:28:15.689Z,1016.44
2022-09-21T14:29:15.667Z,1016.46
2022-09-21T14:30:15.662Z,1016.41
2022-09-21T14:31:15.775Z,1016.37
2022-09-21T14:32:15.649Z,1016.33
2022-09-21T14:33:15.643Z,1016.34
2022-09-21T14:34:15.627Z,1016.36
2022-09-21T14:35:15.628Z,1016.30
2022-09-21T14:36:15.628Z,1016.28
2022-09-21T14:37:15.605Z,1016.27
2022-09-21T14:38:15.595Z,1016.27
2022-09-21T14:39:15.587Z,1016.29
2022-09-21T14:40:15.650Z,1016.30
2022-09-21T14:41:17.270Z,1016.29
2022-09-21T14:42:15.564Z,1016.29
2022-09-21T14:43:15.580Z,1016.25
2022-09-21T14:44:15.559Z,1016.24
2022-09-21T14:45:15.544Z,1016.21
2022-09-21T14:46:15.675Z,1016.24
2022-09-21T14:47:15.537Z,1016.17
2022-09-21T14:48:15.523Z,1016.22
2022-09-21T14:49:15.510Z,1016.23
2022-09-21T14:50:15.663Z,1016.24
2022-09-21T14:51:15.506Z,1016.20
2022-09-21T14:52:20.254Z,1016.14
2022-09-21T14:53:15.488Z,1016.07
2022-09-21T14:54:15.480Z,1016.08
2022-09-21T14:55:15.470Z,1016.06
2022-09-21T14:56:15.482Z,1016.05
2022-09-21T14:57:15.493Z,1016.05
2022-09-21T14:58:15.448Z,1016.04
